createdAt,value
2022-11-30T00:01:21.203Z,2.20
2022-11-30T00:03:49.587Z,2.23
2022-11-30T00:06:23.110Z,2.28
2022-11-30T00:08:55.619Z,2.26
2022-11-30T00:11:25.292Z,2.29
2022-11-30T00:13:53.192Z,2.30
2022-11-30T00:16:20.858Z,2.32
2022-11-30T00:18:48.422Z,2.31
2022-11-30T00:21:16.306Z,2.22
2022-11-30T00:23:45.200Z,2.29
2022-11-30T00:26:17.588Z,2.25
2022-11-30T00:28:46.211Z,2.21
2022-11-30T00:31:16.392Z,2.20
2022-11-30T00:33:44.425Z,2.27
2022-11-30T00:36:15.366Z,2.08
2022-11-30T00:38:42.972Z,2.17
2022-11-30T00:41:11.008Z,2.23
2022-11-30T00:43:38.975Z,2.25
2022-11-30T00:46:09.268Z,2.31
2022-11-30T00:48:37.901Z,2.23
2022-11-30T00:51:06.902Z,2.29
2022-11-30T00:53:34.828Z,2.27
2022-11-30T00:56:02.378Z,2.34
2022-11-30T00:58:30.225Z,2.36
2022-11-30T01:00:57.758Z,2.18
2022-11-30T01:03:25.335Z,2.12
2022-11-30T01:05:53.109Z,2.13
2022-11-30T01:08:20.678Z,2.19
2022-11-30T01:10:53.293Z,2.11
2022-11-30T01:13:21.101Z,2.11
2022-11-30T01:15:48.602Z,2.04
2022-11-30T01:18:16.411Z,2.13
2022-11-30T01:20:44.206Z,2.17
2022-11-30T01:23:11.764Z,2.22
2022-11-30T01:25:39.687Z,2.27
2022-11-30T01:28:09.686Z,2.33
2022-11-30T01:30:37.308Z,2.32
2022-11-30T01:33:05.721Z,2.11
2022-11-30T01:35:33.415Z,2.09
2022-11-30T01:38:00.993Z,2.08
2022-11-30T01:40:28.519Z,1.99
2022-11-30T01:42:56.295Z,2.04
2022-11-30T01:45:23.862Z,2.00
2022-11-30T01:47:56.691Z,2.04
2022-11-30T01:50:30.199Z,2.13
2022-11-30T01:52:58.038Z,2.17
2022-11-30T01:55:43.520Z,2.21
2022-11-30T01:58:14.032Z,2.21
2022-11-30T02:00:44.739Z,2.04
2022-11-30T02:03:20.039Z,2.12
2022-11-30T02:05:47.530Z,2.00
2022-11-30T02:08:15.348Z,2.13
2022-11-30T02:10:52.447Z,2.20
2022-11-30T02:13:42.042Z,2.16
2022-11-30T02:16:47.308Z,2.25
2022-11-30T02:19:37.703Z,2.17
2022-11-30T02:22:14.332Z,2.13
2022-11-30T02:25:03.840Z,1.94
2022-11-30T02:27:53.274Z,1.97
2022-11-30T02:30:22.621Z,2.00
2022-11-30T02:32:57.821Z,1.92
2022-11-30T02:35:28.636Z,1.96
2022-11-30T02:37:57.531Z,1.98
2022-11-30T02:40:25.454Z,1.98
2022-11-30T02:42:54.199Z,2.05
2022-11-30T02:45:27.973Z,1.93
2022-11-30T02:47:59.926Z,1.88
2022-11-30T02:50:41.236Z,1.90
2022-11-30T02:53:09.828Z,1.90
2022-11-30T02:55:37.512Z,1.87
2022-11-30T02:58:05.610Z,1.92
2022-11-30T03:00:33.382Z,1.99
2022-11-30T03:03:01.287Z,1.95
2022-11-30T03:05:28.785Z,2.04
2022-11-30T03:07:56.733Z,2.14
2022-11-30T03:10:24.246Z,2.18
2022-11-30T03:12:51.766Z,2.25
2022-11-30T03:15:19.544Z,2.07
2022-11-30T03:17:47.262Z,1.97
2022-11-30T03:20:14.840Z,2.13
2022-11-30T03:22:42.625Z,2.18
2022-11-30T03:25:10.468Z,1.95
2022-11-30T03:27:37.949Z,1.92
2022-11-30T03:30:06.506Z,2.02
2022-11-30T03:32:34.394Z,1.96
2022-11-30T03:35:01.954Z,1.91
2022-11-30T03:37:29.746Z,1.87
2022-11-30T03:39:58.557Z,1.84
2022-11-30T03:42:26.343Z,1.79
2022-11-30T03:44:54.140Z,1.85
2022-11-30T03:47:21.771Z,1.88
2022-11-30T03:49:50.384Z,1.85
2022-11-30T03:52:18.091Z,1.80
2022-11-30T03:54:45.835Z,1.83
2022-11-30T03:57:13.541Z,1.73
2022-11-30T03:59:41.351Z,1.78
2022-11-30T04:02:08.920Z,1.76
2022-11-30T04:04:36.660Z,1.77
2022-11-30T04:07:04.195Z,1.73
2022-11-30T04:09:31.978Z,1.81
2022-11-30T04:11:59.783Z,1.90
2022-11-30T04:14:27.373Z,1.98
2022-11-30T04:16:54.841Z,1.98
2022-11-30T04:19:22.776Z,2.09
2022-11-30T04:21:51.506Z,2.17
2022-11-30T04:24:19.050Z,2.17
2022-11-30T04:26:46.881Z,2.16
2022-11-30T04:29:14.412Z,2.17
2022-11-30T04:31:41.974Z,2.22
2022-11-30T04:34:10.049Z,2.22
2022-11-30T04:36:37.581Z,2.24
2022-11-30T04:39:05.094Z,2.30
2022-11-30T04:41:32.834Z,2.22
2022-11-30T04:44:00.362Z,1.98
2022-11-30T04:46:27.910Z,1.98
2022-11-30T04:48:55.633Z,1.89
2022-11-30T04:51:23.226Z,1.82
2022-11-30T04:53:50.911Z,1.86
2022-11-30T04:56:18.794Z,1.94
2022-11-30T04:58:46.334Z,2.07
2022-11-30T05:01:13.762Z,2.12
2022-11-30T05:03:41.585Z,2.17
2022-11-30T05:06:09.195Z,2.18
2022-11-30T05:08:36.668Z,2.18
2022-11-30T05:11:04.582Z,2.17
2022-11-30T05:13:32.052Z,2.22
2022-11-30T05:15:59.690Z,2.21
2022-11-30T05:18:27.522Z,2.28
2022-11-30T05:20:55.098Z,2.26
2022-11-30T05:23:22.593Z,2.32
2022-11-30T05:25:50.489Z,2.28
2022-11-30T05:28:18.030Z,2.31
2022-11-30T05:30:45.530Z,2.35
2022-11-30T05:33:13.395Z,2.29
2022-11-30T05:35:41.077Z,2.21
2022-11-30T05:38:08.649Z,2.34
2022-11-30T05:40:36.714Z,2.35
2022-11-30T05:43:04.899Z,2.30
2022-11-30T05:45:32.413Z,2.27
2022-11-30T05:48:00.255Z,1.96
2022-11-30T05:50:27.826Z,1.90
2022-11-30T05:52:56.600Z,1.91
2022-11-30T05:55:24.972Z,1.80
2022-11-30T05:57:53.416Z,1.86
2022-11-30T06:00:21.915Z,1.90
2022-11-30T06:02:55.596Z,2.06
2022-11-30T06:05:23.173Z,2.33
2022-11-30T06:07:51.183Z,2.90
2022-11-30T06:10:18.720Z,3.12
2022-11-30T06:12:46.459Z,3.03
2022-11-30T06:15:14.382Z,3.09
2022-11-30T06:17:41.977Z,2.33
2022-11-30T06:20:09.917Z,2.26
2022-11-30T06:22:37.776Z,2.36
2022-11-30T06:25:05.729Z,2.26
2022-11-30T06:27:33.406Z,2.36
2022-11-30T06:30:01.719Z,2.43
2022-11-30T06:32:29.375Z,2.40
2022-11-30T06:34:56.957Z,2.45
2022-11-30T06:37:24.829Z,2.49
2022-11-30T06:40:06.665Z,2.53
2022-11-30T06:42:36.240Z,2.55
2022-11-30T06:45:05.078Z,2.57
2022-11-30T06:47:32.675Z,2.61
2022-11-30T06:50:00.538Z,2.64
2022-11-30T06:52:30.819Z,2.67
2022-11-30T06:54:58.449Z,2.67
2022-11-30T06:57:30.279Z,2.66
2022-11-30T06:59:57.823Z,2.68
2022-11-30T07:02:25.392Z,2.66
2022-11-30T07:04:53.507Z,2.62
2022-11-30T07:07:21.410Z,2.65
2022-11-30T07:09:50.731Z,2.64
2022-11-30T07:12:18.536Z,2.66
2022-11-30T07:14:46.348Z,2.61
2022-11-30T07:17:14.211Z,2.63
2022-11-30T07:19:42.006Z,2.68
2022-11-30T07:22:09.567Z,2.47
2022-11-30T07:24:55.645Z,2.70
2022-11-30T07:27:23.987Z,2.77
2022-11-30T07:29:52.584Z,2.78
2022-11-30T07:32:20.342Z,2.86
2022-11-30T07:34:48.698Z,2.88
2022-11-30T07:37:16.418Z,2.98
2022-11-30T07:39:44.020Z,2.90
2022-11-30T07:42:11.944Z,2.96
2022-11-30T07:44:39.498Z,2.96
2022-11-30T07:47:06.998Z,2.88
2022-11-30T07:49:34.905Z,3.00
2022-11-30T07:52:04.678Z,3.07
2022-11-30T07:54:32.273Z,3.12
2022-11-30T07:57:00.291Z,3.12
2022-11-30T07:59:28.011Z,2.89
2022-11-30T08:01:55.739Z,3.12
2022-11-30T08:04:23.655Z,3.16
2022-11-30T08:06:54.270Z,3.18
2022-11-30T08:09:21.827Z,3.20
2022-11-30T08:11:50.131Z,3.25
2022-11-30T08:14:19.863Z,3.24
2022-11-30T08:16:49.071Z,3.20
2022-11-30T08:19:17.151Z,3.21
2022-11-30T08:21:44.863Z,3.28
2022-11-30T08:24:13.963Z,3.28
2022-11-30T08:26:42.614Z,3.18
2022-11-30T08:29:11.710Z,3.18
2022-11-30T08:31:39.634Z,3.14
2022-11-30T08:34:10.290Z,3.18
2022-11-30T08:36:38.546Z,3.07
2022-11-30T08:39:07.673Z,3.01
2022-11-30T08:41:36.073Z,3.12
2022-11-30T08:44:03.681Z,3.14
2022-11-30T08:49:23.168Z,3.13
2022-11-30T08:54:47.393Z,2.70
2022-11-30T08:57:20.201Z,2.92
2022-11-30T08:59:48.522Z,2.64
2022-11-30T09:02:18.284Z,2.83
2022-11-30T09:04:49.297Z,3.08
2022-11-30T09:07:17.891Z,2.89
2022-11-30T09:09:45.610Z,3.02
2022-11-30T09:12:13.211Z,3.20
2022-11-30T09:14:41.041Z,3.31
2022-11-30T09:17:08.732Z,3.35
2022-11-30T09:19:36.378Z,3.43
2022-11-30T09:22:04.980Z,3.50
2022-11-30T09:24:34.691Z,3.49
2022-11-30T09:27:02.221Z,3.47
2022-11-30T09:29:30.052Z,3.60
2022-11-30T09:31:57.646Z,3.63
2022-11-30T09:34:25.385Z,3.57
2022-11-30T09:36:53.384Z,3.54
2022-11-30T09:39:21.244Z,3.57
2022-11-30T09:42:07.780Z,3.60
2022-11-30T09:44:46.149Z,3.68
2022-11-30T09:47:47.960Z,3.69
2022-11-30T09:50:23.155Z,3.75
2022-11-30T09:53:06.896Z,3.79
2022-11-30T09:55:39.473Z,3.85
2022-11-30T09:58:14.240Z,3.78
2022-11-30T10:00:42.655Z,3.90
2022-11-30T10:03:11.456Z,3.43
2022-11-30T10:05:55.689Z,3.58
2022-11-30T10:08:50.473Z,3.55
2022-11-30T10:11:21.540Z,3.67
2022-11-30T10:14:11.423Z,3.38
2022-11-30T10:16:45.421Z,3.56
2022-11-30T10:19:46.871Z,3.58
2022-11-30T10:22:39.026Z,3.51
2022-11-30T10:25:23.491Z,3.70
2022-11-30T10:27:56.654Z,3.58
2022-11-30T10:30:26.898Z,3.82
2022-11-30T10:32:56.293Z,3.90
2022-11-30T10:35:46.053Z,3.78
2022-11-30T10:38:23.587Z,3.64
2022-11-30T10:40:55.997Z,3.82
2022-11-30T10:43:38.338Z,3.87
2022-11-30T10:46:06.410Z,3.76
2022-11-30T10:48:47.779Z,3.81
2022-11-30T10:51:15.854Z,3.61
2022-11-30T10:53:57.995Z,3.23
2022-11-30T10:56:26.231Z,3.19
2022-11-30T10:58:58.395Z,3.36
2022-11-30T11:01:37.805Z,3.43
2022-11-30T11:04:09.861Z,3.51
2022-11-30T11:06:43.549Z,3.50
2022-11-30T11:09:31.786Z,3.55
2022-11-30T11:12:04.844Z,3.64
2022-11-30T11:14:37.642Z,3.68
2022-11-30T11:17:21.931Z,3.78
2022-11-30T11:19:50.951Z,3.80
2022-11-30T11:22:26.775Z,3.69
2022-11-30T11:25:06.722Z,3.82
2022-11-30T11:27:44.634Z,3.79
2022-11-30T11:30:28.306Z,3.83
2022-11-30T11:33:19.172Z,3.90
2022-11-30T11:36:08.546Z,3.97
2022-11-30T11:42:22.046Z,4.10
2022-11-30T11:44:56.619Z,4.13
2022-11-30T11:47:45.949Z,4.12
2022-11-30T11:50:58.225Z,4.13
2022-11-30T11:53:24.251Z,4.14
2022-11-30T11:56:17.842Z,3.98
2022-11-30T11:58:58.396Z,3.96
2022-11-30T12:01:40.348Z,4.08
2022-11-30T12:04:28.357Z,4.15
2022-11-30T12:06:59.543Z,3.87
2022-11-30T12:09:39.035Z,3.82
2022-11-30T12:12:12.877Z,3.68
2022-11-30T12:14:41.389Z,3.73
2022-11-30T12:17:43.049Z,3.75
2022-11-30T12:20:19.772Z,3.85
2022-11-30T12:23:12.230Z,3.90
2022-11-30T12:25:47.886Z,3.89
2022-11-30T12:28:24.571Z,3.93
2022-11-30T12:31:11.611Z,3.96
2022-11-30T12:33:58.027Z,3.90
2022-11-30T12:36:40.830Z,3.92
2022-11-30T12:39:22.116Z,3.88
2022-11-30T12:41:52.617Z,3.94
2022-11-30T12:44:42.308Z,3.93
2022-11-30T12:47:44.637Z,4.02
2022-11-30T12:50:24.302Z,4.00
2022-11-30T12:53:24.667Z,3.96
2022-11-30T12:56:25.491Z,4.02
2022-11-30T12:59:34.459Z,3.73
2022-11-30T13:02:07.913Z,3.77
2022-11-30T13:04:58.440Z,3.87
2022-11-30T13:07:46.661Z,3.98
2022-11-30T13:10:35.677Z,3.97
2022-11-30T13:13:04.640Z,4.05
2022-11-30T13:15:35.947Z,4.11
2022-11-30T13:18:03.890Z,3.96
2022-11-30T13:20:34.558Z,3.99
2022-11-30T13:23:10.326Z,4.03
2022-11-30T13:28:41.933Z,3.97
2022-11-30T13:31:23.838Z,4.01
2022-11-30T13:33:54.975Z,4.02
2022-11-30T13:36:28.004Z,3.96
2022-11-30T13:39:14.331Z,4.02
2022-11-30T13:41:44.041Z,3.96
2022-11-30T13:44:41.636Z,4.06
2022-11-30T13:47:29.076Z,3.94
2022-11-30T13:49:59.601Z,3.93
2022-11-30T13:52:57.780Z,3.97
2022-11-30T13:55:48.606Z,3.52
2022-11-30T13:58:19.304Z,3.56
2022-11-30T14:00:48.091Z,3.62
2022-11-30T14:03:21.721Z,3.69
2022-11-30T14:06:01.371Z,3.52
2022-11-30T14:08:35.052Z,3.68
2022-11-30T14:11:36.469Z,3.80
2022-11-30T14:14:45.882Z,3.82
2022-11-30T14:17:17.383Z,3.71
2022-11-30T14:19:47.444Z,3.73
2022-11-30T14:22:15.269Z,3.77
2022-11-30T14:24:45.888Z,3.81
2022-11-30T14:27:21.642Z,3.84
2022-11-30T14:29:53.451Z,3.87
2022-11-30T14:32:42.914Z,3.92
2022-11-30T14:35:16.361Z,3.65
2022-11-30T14:38:15.805Z,3.67
2022-11-30T14:40:52.434Z,3.63
2022-11-30T14:43:20.500Z,3.78
2022-11-30T14:46:26.574Z,3.84
2022-11-30T14:49:16.035Z,3.87
2022-11-30T14:51:50.196Z,3.84
2022-11-30T14:54:31.732Z,3.72
2022-11-30T14:57:05.777Z,3.82
2022-11-30T14:59:37.006Z,3.77
2022-11-30T15:02:06.408Z,3.72
2022-11-30T15:04:36.450Z,3.71
2022-11-30T15:07:04.159Z,3.79
2022-11-30T15:09:32.359Z,3.82
2022-11-30T15:12:00.308Z,3.68
2022-11-30T15:14:27.892Z,3.59
2022-11-30T15:16:57.355Z,3.43
2022-11-30T15:19:30.653Z,3.50
2022-11-30T15:22:01.224Z,3.50
2022-11-30T15:24:30.603Z,3.49
2022-11-30T15:27:10.720Z,3.59
2022-11-30T15:29:42.821Z,3.69
2022-11-30T15:32:19.659Z,3.54
2022-11-30T15:34:54.903Z,3.63
2022-11-30T15:37:34.972Z,3.61
2022-11-30T15:40:04.883Z,3.55
2022-11-30T15:42:40.389Z,3.45
2022-11-30T15:45:33.021Z,3.54
2022-11-30T15:48:01.620Z,3.60
2022-11-30T15:50:29.357Z,3.61
2022-11-30T15:52:59.207Z,3.44
2022-11-30T15:55:47.398Z,3.41
2022-11-30T15:58:37.136Z,3.46
2022-11-30T16:01:13.736Z,3.39
2022-11-30T16:03:58.046Z,3.36
2022-11-30T16:06:32.175Z,3.38
2022-11-30T16:09:16.955Z,3.33
2022-11-30T16:11:44.890Z,3.41
2022-11-30T16:14:17.292Z,3.31
2022-11-30T16:16:45.805Z,3.30
2022-11-30T16:19:13.632Z,3.26
2022-11-30T16:21:41.406Z,3.38
2022-11-30T16:24:13.568Z,3.37
2022-11-30T16:26:50.948Z,3.27
2022-11-30T16:29:20.435Z,3.25
2022-11-30T16:31:48.478Z,3.26
2022-11-30T16:34:16.221Z,3.34
2022-11-30T16:36:43.885Z,3.40
2022-11-30T16:39:12.997Z,3.46
2022-11-30T16:41:40.863Z,3.46
2022-11-30T16:44:13.492Z,3.52
2022-11-30T16:46:41.657Z,3.58
2022-11-30T16:49:09.374Z,3.57
2022-11-30T16:51:38.297Z,3.59
2022-11-30T16:54:06.139Z,3.64
2022-11-30T16:56:33.856Z,3.67
2022-11-30T16:59:01.597Z,3.68
2022-11-30T17:01:35.965Z,3.67
2022-11-30T17:04:10.725Z,3.69
2022-11-30T17:06:38.881Z,3.61
2022-11-30T17:09:09.259Z,3.67
2022-11-30T17:11:37.420Z,3.63
2022-11-30T17:14:05.745Z,3.68
2022-11-30T17:16:33.549Z,3.43
2022-11-30T17:19:01.070Z,3.30
2022-11-30T17:21:34.753Z,3.45
2022-11-30T17:24:03.332Z,3.55
2022-11-30T17:26:31.425Z,3.51
2022-11-30T17:28:59.394Z,3.25
2022-11-30T17:31:27.277Z,3.32
2022-11-30T17:33:55.232Z,3.29
2022-11-30T17:36:23.569Z,3.25
2022-11-30T17:38:51.310Z,3.15
2022-11-30T17:41:20.122Z,3.22
2022-11-30T17:43:49.062Z,3.27
2022-11-30T17:46:18.451Z,3.24
2022-11-30T17:48:46.665Z,3.23
2022-11-30T17:51:14.282Z,3.21
2022-11-30T17:53:42.593Z,3.18
2022-11-30T17:56:12.883Z,3.23
2022-11-30T17:58:44.064Z,3.18
2022-11-30T18:01:26.861Z,3.14
2022-11-30T18:04:01.980Z,3.17
2022-11-30T18:06:29.693Z,3.19
2022-11-30T18:08:57.948Z,3.12
2022-11-30T18:11:27.723Z,3.05
2022-11-30T18:13:56.399Z,2.96
2022-11-30T18:16:26.642Z,3.01
2022-11-30T18:18:57.265Z,2.96
2022-11-30T18:21:27.918Z,3.05
2022-11-30T18:23:57.018Z,3.09
2022-11-30T18:26:26.131Z,3.08
2022-11-30T18:28:55.629Z,3.12
2022-11-30T18:31:23.733Z,3.11
2022-11-30T18:33:55.989Z,3.17
2022-11-30T18:36:25.821Z,3.27
2022-11-30T18:38:54.179Z,3.32
2022-11-30T18:41:24.230Z,3.36
2022-11-30T18:43:53.637Z,3.33
2022-11-30T18:46:21.914Z,3.39
2022-11-30T18:48:51.129Z,3.31
2022-11-30T18:51:24.169Z,3.37
2022-11-30T18:53:59.938Z,3.27
2022-11-30T18:56:30.342Z,3.10
2022-11-30T18:59:10.792Z,2.95
2022-11-30T19:01:38.739Z,2.95
2022-11-30T19:04:08.930Z,2.90
2022-11-30T19:06:38.759Z,2.82
2022-11-30T19:09:09.211Z,2.72
2022-11-30T19:11:38.015Z,2.66
2022-11-30T19:14:06.794Z,2.59
2022-11-30T19:16:35.111Z,2.59
2022-11-30T19:19:06.726Z,2.57
2022-11-30T19:21:35.142Z,2.60
2022-11-30T19:24:02.955Z,2.50
2022-11-30T19:26:30.768Z,2.49
2022-11-30T19:28:59.130Z,2.44
2022-11-30T19:31:27.380Z,2.39
2022-11-30T19:33:56.289Z,2.19
2022-11-30T19:36:27.964Z,2.08
2022-11-30T19:38:58.219Z,2.12
2022-11-30T19:41:27.025Z,1.94
2022-11-30T19:44:03.541Z,1.80
2022-11-30T19:46:34.610Z,1.88
2022-11-30T19:49:02.989Z,1.82
2022-11-30T19:51:31.650Z,1.87
2022-11-30T19:54:00.020Z,1.88
2022-11-30T19:56:30.061Z,1.86
2022-11-30T19:59:03.984Z,1.87
2022-11-30T20:01:33.811Z,1.94
2022-11-30T20:04:02.628Z,1.92
2022-11-30T20:06:33.721Z,1.93
2022-11-30T20:09:02.059Z,1.93
2022-11-30T20:11:30.572Z,1.89
2022-11-30T20:14:00.148Z,1.87
2022-11-30T20:16:28.604Z,1.81
2022-11-30T20:19:01.874Z,1.69
2022-11-30T20:21:31.954Z,1.78
2022-11-30T20:24:01.983Z,1.83
2022-11-30T20:26:32.038Z,1.91
2022-11-30T20:29:01.668Z,1.98
2022-11-30T20:31:30.931Z,1.98
2022-11-30T20:33:58.978Z,1.67
2022-11-30T20:36:27.769Z,1.67
2022-11-30T20:38:55.608Z,1.70
2022-11-30T20:41:24.468Z,1.67
2022-11-30T20:43:53.405Z,1.76
2022-11-30T20:46:25.425Z,1.62
2022-11-30T20:48:53.783Z,1.69
2022-11-30T20:51:32.484Z,1.76
2022-11-30T20:54:03.910Z,1.73
2022-11-30T20:56:33.002Z,1.82
2022-11-30T20:59:02.408Z,1.89
2022-11-30T21:01:30.294Z,1.97
2022-11-30T21:04:00.800Z,1.96
2022-11-30T21:06:30.240Z,2.02
2022-11-30T21:08:58.576Z,1.97
2022-11-30T21:11:27.653Z,1.93
2022-11-30T21:13:56.548Z,1.82
2022-11-30T21:16:28.099Z,1.84
2022-11-30T21:18:59.988Z,1.90
2022-11-30T21:21:33.066Z,1.85
2022-11-30T21:24:03.160Z,1.84
2022-11-30T21:26:33.089Z,1.72
2022-11-30T21:29:06.971Z,1.67
2022-11-30T21:31:34.743Z,1.59
2022-11-30T21:34:03.240Z,1.71
2022-11-30T21:36:30.794Z,1.86
2022-11-30T21:39:05.561Z,1.89
2022-11-30T21:41:36.340Z,2.00
2022-11-30T21:44:04.482Z,1.98
2022-11-30T21:46:32.193Z,1.96
2022-11-30T21:49:00.349Z,2.00
2022-11-30T21:51:29.774Z,1.97
2022-11-30T21:54:01.208Z,1.87
2022-11-30T21:56:34.329Z,1.89
2022-11-30T21:59:03.345Z,1.92
2022-11-30T22:01:32.195Z,1.93
2022-11-30T22:04:01.162Z,1.83
2022-11-30T22:06:29.848Z,1.82
2022-11-30T22:09:03.070Z,1.77
2022-11-30T22:11:31.344Z,1.80
2022-11-30T22:13:58.877Z,1.78
2022-11-30T22:16:34.002Z,1.70
2022-11-30T22:19:04.994Z,1.72
2022-11-30T22:21:32.882Z,1.76
2022-11-30T22:24:06.682Z,1.77
2022-11-30T22:26:37.079Z,1.74
2022-11-30T22:29:16.141Z,1.76
2022-11-30T22:31:45.670Z,1.81
2022-11-30T22:34:13.375Z,1.90
2022-11-30T22:36:42.524Z,1.92
2022-11-30T22:39:13.532Z,1.89
2022-11-30T22:41:42.200Z,1.91
2022-11-30T22:44:12.663Z,1.89
2022-11-30T22:46:40.372Z,1.95
2022-11-30T22:49:09.990Z,1.97
2022-11-30T22:51:38.235Z,1.96
2022-11-30T22:54:06.843Z,1.97
2022-11-30T22:56:41.218Z,2.06
2022-11-30T22:59:13.504Z,2.11
2022-11-30T23:01:46.567Z,2.15
2022-11-30T23:04:17.339Z,2.07
2022-11-30T23:06:45.984Z,2.14
2022-11-30T23:09:18.085Z,2.05
2022-11-30T23:11:46.157Z,1.95
2022-11-30T23:14:16.050Z,1.92
2022-11-30T23:16:44.247Z,1.82
2022-11-30T23:19:12.529Z,1.80
2022-11-30T23:21:42.752Z,1.82
2022-11-30T23:24:14.844Z,1.89
2022-11-30T23:26:43.015Z,1.77
2022-11-30T23:29:13.011Z,1.70
2022-11-30T23:31:42.676Z,1.76
2022-11-30T23:34:13.569Z,1.84
2022-11-30T23:36:41.079Z,1.87
2022-11-30T23:39:11.680Z,1.91
2022-11-30T23:41:40.518Z,2.00
2022-11-30T23:44:08.609Z,2.07
2022-11-30T23:46:36.522Z,2.12
2022-11-30T23:49:04.774Z,2.18
2022-11-30T23:51:32.280Z,2.22
2022-11-30T23:53:59.831Z,2.23
2022-11-30T23:56:27.571Z,2.34
2022-11-30T23:58:55.066Z,2.37
